Time,TemperatureF,DewpointF,PressureIn,WindDirection,WindDirectionDegrees,WindSpeedMPH,WindSpeedGustMPH,Humidity,HourlyPrecipIn,Conditions,Clouds,dailyrainin,SoftwareType,DateUTC
2013-08-19 00:00:00,65.3,61.0,30.48,ESE,120,0.0,0.0,86,0.00,BKN,,0.00,WeatherDisplay:10.37,2013-08-19 04:00:00,
2013-08-19 00:01:00,65.3,61.0,30.48,ESE,120,0.0,0.0,86,0.00,BKN,,0.00,WeatherDisplay:10.37,2013-08-19 04:01:00,
2013-08-19 00:02:00,65.3,61.0,30.48,ESE,120,0.0,0.0,86,0.00,BKN,,0.00,WeatherDisplay:10.37,2013-08-19 04:02:00,
2013-08-19 00:03:00,65.3,61.0,30.48,ESE,120,0.0,0.0,86,0.00,BKN,,0.00,WeatherDisplay:10.37,2013-08-19 04:03:00,
2013-08-19 00:08:00,65.3,61.0,30.39,ESE,120,0.0,0.0,86,0.00,BKN,,0.00,WeatherDisplay:10.37,2013-08-19 04:08:00,
2013-08-19 00:13:00,65.3,61.0,30.39,ESE,120,0.0,0.0,86,0.00,BKN,,0.00,WeatherDisplay:10.37,2013-08-19 04:13:00,
2013-08-19 00:18:00,65.3,61.0,30.39,ESE,120,0.0,0.0,86,0.00,BKN,,0.00,WeatherDisplay:10.37,2013-08-19 04:18:00,
2013-08-19 00:23:00,65.3,61.0,30.45,ESE,120,0.0,0.0,86,0.00,BKN,,0.00,WeatherDisplay:10.37,2013-08-19 04:23:00,
2013-08-19 00:28:00,65.3,61.0,30.45,ESE,120,0.0,0.0,86,0.00,BKN,,0.00,WeatherDisplay:10.37,2013-08-19 04:28:00,
2013-08-19 00:33:00,65.3,61.0,30.45,ESE,120,0.0,0.0,86,0.00,BKN,,0.00,WeatherDisplay:10.37,2013-08-19 04:33:00,
2013-08-19 00:38:00,63.9,59.6,30.39,ESE,120,0.0,0.0,86,0.00,BKN,,0.00,WeatherDisplay:10.37,2013-08-19 04:38:00,
2013-08-19 00:43:00,63.9,59.6,30.39,ESE,120,0.0,0.0,86,0.00,BKN,,0.00,WeatherDisplay:10.37,2013-08-19 04:43:00,
2013-08-19 00:48:00,63.9,59.6,30.39,ESE,120,0.0,0.0,86,0.00,BKN,,0.00,WeatherDisplay:10.37,2013-08-19 04:48:00,
2013-08-19 00:53:00,63.9,59.6,30.39,ESE,120,0.0,0.0,86,0.00,BKN,,0.00,WeatherDisplay:10.37,2013-08-19 04:53:00,
2013-08-19 00:58:00,63.9,59.6,30.39,ESE,120,0.0,0.0,86,0.00,BKN,,0.00,WeatherDisplay:10.37,2013-08-19 04:58:00,
2013-08-19 01:03:00,63.9,60.9,30.39,ESE,120,0.0,0.0,90,0.00,BKN,,0.00,WeatherDisplay:10.37,2013-08-19 05:03:00,
2013-08-19 01:08:00,63.7,60.7,30.45,ESE,120,0.0,0.0,90,0.00,BKN,,0.00,WeatherDisplay:10.37,2013-08-19 05:08:00,
2013-08-19 01:13:00,63.7,60.7,30.45,ESE,120,0.0,0.0,90,0.00,BKN,,0.00,WeatherDisplay:10.37,2013-08-19 05:13:00,
2013-08-19 01:18:00,63.7,60.7,30.45,ESE,120,0.0,0.0,90,0.00,BKN,,0.00,WeatherDisplay:10.37,2013-08-19 05:18:00,
2013-08-19 01:23:00,63.7,60.7,30.36,ESE,120,0.0,0.0,90,0.00,BKN,,0.00,WeatherDisplay:10.37,2013-08-19 05:23:00,
2013-08-19 01:28:00,63.7,60.7,30.36,ESE,120,0.0,0.0,90,0.00,BKN,,0.00,WeatherDisplay:10.37,2013-08-19 05:28:00,
2013-08-19 01:33:00,63.7,60.7,30.36,ESE,120,0.0,0.0,90,0.00,BKN,,0.00,WeatherDisplay:10.37,2013-08-19 05:33:00,
2013-08-19 01:38:00,63.7,60.7,30.33,ESE,120,0.0,0.0,90,0.00,BKN,,0.00,WeatherDisplay:10.37,2013-08-19 05:38:00,
2013-08-19 01:43:00,63.7,60.7,30.33,ESE,120,0.0,0.0,90,0.00,BKN,,0.00,WeatherDisplay:10.37,2013-08-19 05:43:00,
2013-08-19 01:48:00,63.5,60.5,30.33,ESE,120,0.0,0.0,90,0.00,BKN,,0.00,WeatherDisplay:10.37,2013-08-19 05:48:00,
2013-08-19 01:53:00,63.5,60.5,30.30,ESE,120,0.0,0.0,90,0.00,BKN,,0.00,WeatherDisplay:10.37,2013-08-19 05:53:00,
2013-08-19 01:58:00,63.5,60.5,30.30,ESE,120,0.0,0.0,90,0.00,BKN,,0.00,WeatherDisplay:10.37,2013-08-19 05:58:00,
2013-08-19 02:03:00,63.5,60.5,30.30,ESE,120,0.0,0.0,90,0.00,OVC,,0.00,WeatherDisplay:10.37,2013-08-19 06:03:00,
2013-08-19 02:08:00,63.3,60.3,30.30,ESE,120,0.0,0.0,90,0.00,OVC,,0.00,WeatherDisplay:10.37,2013-08-19 06:08:00,
2013-08-19 02:13:00,63.3,60.3,30.30,ESE,120,0.0,0.0,90,0.00,OVC,,0.00,WeatherDisplay:10.37,2013-08-19 06:13:00,
2013-08-19 02:18:00,63.3,60.3,30.30,ESE,120,0.0,0.0,90,0.00,OVC,,0.00,WeatherDisplay:10.37,2013-08-19 06:18:00,
2013-08-19 02:23:00,63.3,60.3,30.30,ESE,120,0.0,0.0,90,0.00,OVC,,0.00,WeatherDisplay:10.37,2013-08-19 06:23:00,
2013-08-19 02:28:00,63.1,60.2,30.30,ESE,120,0.0,0.0,90,0.00,OVC,,0.00,WeatherDisplay:10.37,2013-08-19 06:28:00,
2013-08-19 02:33:00,63.5,60.5,30.30,ESE,120,0.0,0.0,90,0.00,OVC,,0.00,WeatherDisplay:10.37,2013-08-19 06:33:00,
2013-08-19 02:38:00,63.3,60.3,30.27,ESE,120,0.0,0.0,90,0.00,OVC,,0.00,WeatherDisplay:10.37,2013-08-19 06:38:00,
2013-08-19 02:43:00,63.1,60.2,30.27,ESE,120,0.0,0.0,90,0.00,OVC,,0.00,WeatherDisplay:10.37,2013-08-19 06:43:00,
2013-08-19 02:48:00,63.3,60.3,30.27,ESE,120,0.0,0.0,90,0.00,OVC,,0.00,WeatherDisplay:10.37,2013-08-19 06:48:00,
2013-08-19 02:53:00,63.3,60.3,30.27,ESE,120,0.0,0.0,90,0.00,OVC,,0.00,WeatherDisplay:10.37,2013-08-19 06:53:00,
2013-08-19 02:58:00,63.0,60.0,30.27,ESE,120,0.0,0.0,90,0.00,OVC,,0.00,WeatherDisplay:10.37,2013-08-19 06:58:00,
2013-08-19 03:03:00,63.0,59.7,30.27,ESE,120,0.0,0.0,89,0.00,OVC,,0.00,WeatherDisplay:10.37,2013-08-19 07:03:00,
2013-08-19 03:08:00,63.1,59.8,30.27,ESE,120,0.0,0.0,89,0.00,OVC,,0.00,WeatherDisplay:10.37,2013-08-19 07:08:00,
2013-08-19 03:13:00,63.1,59.8,30.27,ESE,120,0.0,0.0,89,0.00,OVC,,0.00,WeatherDisplay:10.37,2013-08-19 07:13:00,
2013-08-19 03:18:00,63.1,59.8,30.27,ESE,120,0.0,0.0,89,0.00,OVC,,0.00,WeatherDisplay:10.37,2013-08-19 07:18:00,
2013-08-19 03:23:00,63.1,59.8,30.27,ESE,120,0.0,0.0,89,0.00,OVC,,0.00,WeatherDisplay:10.37,2013-08-19 07:23:00,
2013-08-19 03:28:00,63.0,59.7,30.27,ESE,120,0.0,0.0,89,0.00,OVC,,0.00,WeatherDisplay:10.37,2013-08-19 07:28:00,
2013-08-19 03:33:00,63.0,59.7,30.27,ESE,120,0.0,0.0,89,0.00,OVC,,0.00,WeatherDisplay:10.37,2013-08-19 07:33:00,
2013-08-19 03:38:00,63.0,59.7,30.27,ESE,120,0.0,0.0,89,0.00,OVC,,0.00,WeatherDisplay:10.37,2013-08-19 07:38:00,
2013-08-19 03:43:00,63.0,59.7,30.27,ESE,120,0.0,0.0,89,0.00,OVC,,0.00,WeatherDisplay:10.37,2013-08-19 07:43:00,
2013-08-19 03:48:00,62.8,59.5,30.27,ESE,120,0.0,0.0,89,0.00,OVC,,0.00,WeatherDisplay:10.37,2013-08-19 07:48:00,
2013-08-19 03:53:00,62.8,59.5,30.27,ESE,120,0.0,0.0,89,0.00,OVC,,0.00,WeatherDisplay:10.37,2013-08-19 07:53:00,
2013-08-19 03:58:00,62.8,59.5,30.27,ESE,120,0.0,0.0,89,0.00,OVC,,0.00,WeatherDisplay:10.37,2013-08-19 07:58:00,
2013-08-19 04:03:00,63.0,60.9,30.27,ESE,120,0.0,0.0,93,0.00,OVC,,0.00,WeatherDisplay:10.37,2013-08-19 08:03:00,
2013-08-19 04:08:00,63.0,60.9,30.27,ESE,120,0.0,0.0,93,0.00,OVC,,0.00,WeatherDisplay:10.37,2013-08-19 08:08:00,
2013-08-19 04:13:00,63.0,60.9,30.27,ESE,120,0.0,0.0,93,0.00,OVC,,0.00,WeatherDisplay:10.37,2013-08-19 08:13:00,
2013-08-19 04:18:00,63.0,60.9,30.27,ESE,120,0.0,0.0,93,0.00,OVC,,0.00,WeatherDisplay:10.37,2013-08-19 08:18:00,
2013-08-19 04:23:00,63.0,60.9,30.27,ESE,120,0.0,0.0,93,0.00,OVC,,0.00,WeatherDisplay:10.37,2013-08-19 08:23:00,
2013-08-19 04:28:00,63.0,60.9,30.27,ESE,120,0.0,0.0,93,0.00,OVC,,0.00,WeatherDisplay:10.37,2013-08-19 08:28:00,
2013-08-19 04:33:00,63.0,60.9,30.27,ESE,120,0.0,0.0,93,0.00,OVC,,0.00,WeatherDisplay:10.37,2013-08-19 08:33:00,
2013-08-19 04:38:00,63.0,60.9,30.27,ESE,120,0.0,0.0,93,0.00,OVC,,0.00,WeatherDisplay:10.37,2013-08-19 08:38:00,
2013-08-19 04:43:00,63.0,60.9,30.27,ESE,120,0.0,0.0,93,0.00,OVC,,0.00,WeatherDisplay:10.37,2013-08-19 08:43:00,
2013-08-19 04:48:00,63.0,60.9,30.27,ESE,120,0.0,0.0,93,0.00,OVC,,0.00,WeatherDisplay:10.37,2013-08-19 08:48:00,
2013-08-19 04:53:00,63.0,60.9,30.27,ESE,120,0.0,0.0,93,0.00,OVC,,0.00,WeatherDisplay:10.37,2013-08-19 08:53:00,
2013-08-19 04:58:00,63.0,60.9,30.27,ESE,120,0.0,0.0,93,0.00,OVC,,0.00,WeatherDisplay:10.37,2013-08-19 08:58:00,
2013-08-19 05:03:00,62.8,60.7,30.27,SSW,200,4.6,4.6,93,0.00,OVC,,0.00,WeatherDisplay:10.37,2013-08-19 09:03:00,
2013-08-19 05:08:00,62.8,60.7,30.30,SSW,200,4.6,4.6,93,0.00,OVC,,0.00,WeatherDisplay:10.37,2013-08-19 09:08:00,
2013-08-19 05:13:00,62.8,60.7,30.30,SSW,200,4.6,4.6,93,0.00,OVC,,0.00,WeatherDisplay:10.37,2013-08-19 09:13:00,
2013-08-19 05:18:00,63.0,60.9,30.30,SSW,200,4.6,4.6,93,0.00,OVC,,0.00,WeatherDisplay:10.37,2013-08-19 09:18:00,
2013-08-19 05:23:00,63.0,60.9,30.30,SSW,200,4.6,4.6,93,0.00,OVC,,0.00,WeatherDisplay:10.37,2013-08-19 09:23:00,
2013-08-19 05:28:00,63.0,60.9,30.30,SSW,200,4.6,4.6,93,0.00,OVC,,0.00,WeatherDisplay:10.37,2013-08-19 09:28:00,
2013-08-19 05:33:00,63.0,60.9,30.30,SSW,200,4.6,4.6,93,0.00,OVC,,0.00,WeatherDisplay:10.37,2013-08-19 09:33:00,
2013-08-19 05:38:00,63.0,60.9,30.30,SSW,200,4.6,4.6,93,0.00,OVC,,0.00,WeatherDisplay:10.37,2013-08-19 09:38:00,
2013-08-19 05:43:00,63.1,61.1,30.30,SSW,200,4.6,4.6,93,0.00,OVC,,0.00,WeatherDisplay:10.37,2013-08-19 09:43:00,
2013-08-19 05:48:00,63.1,61.1,30.30,SSW,200,4.6,4.6,93,0.00,OVC,,0.00,WeatherDisplay:10.37,2013-08-19 09:48:00,
2013-08-19 05:53:00,63.1,61.1,30.30,SSW,200,4.6,4.6,93,0.00,OVC,,0.00,WeatherDisplay:10.37,2013-08-19 09:53:00,
2013-08-19 05:58:00,63.1,61.1,30.30,SSW,200,4.6,4.6,93,0.00,OVC,,0.00,WeatherDisplay:10.37,2013-08-19 09:58:00,
2013-08-19 06:03:00,63.3,60.0,30.30,SSW,200,0.0,0.0,89,0.00,OVC,,0.00,WeatherDisplay:10.37,2013-08-19 10:03:00,
2013-08-19 06:08:00,63.3,60.0,30.30,SSW,200,0.0,0.0,89,0.00,OVC,,0.00,WeatherDisplay:10.37,2013-08-19 10:08:00,
2013-08-19 06:13:00,63.3,60.0,30.30,SSW,200,0.0,0.0,89,0.00,OVC,,0.00,WeatherDisplay:10.37,2013-08-19 10:13:00,
2013-08-19 06:18:00,63.3,60.0,30.30,SSW,200,0.0,0.0,89,0.00,OVC,,0.00,WeatherDisplay:10.37,2013-08-19 10:18:00,
2013-08-19 06:23:00,63.5,60.2,30.30,SSW,200,0.0,0.0,89,0.00,OVC,,0.00,WeatherDisplay:10.37,2013-08-19 10:23:00,
2013-08-19 06:28:00,63.5,60.2,30.30,SSW,200,0.0,0.0,89,0.00,OVC,,0.00,WeatherDisplay:10.37,2013-08-19 10:28:00,
2013-08-19 06:33:00,63.5,60.2,30.30,SSW,200,0.0,0.0,89,0.00,OVC,,0.00,WeatherDisplay:10.37,2013-08-19 10:33:00,
2013-08-19 06:38:00,63.7,60.4,30.30,SSW,200,0.0,0.0,89,0.00,OVC,,0.00,WeatherDisplay:10.37,2013-08-19 10:38:00,
2013-08-19 06:43:00,63.7,60.4,30.30,SSW,200,0.0,0.0,89,0.00,OVC,,0.00,WeatherDisplay:10.37,2013-08-19 10:43:00,
2013-08-19 06:48:00,63.5,60.2,30.30,SSW,200,0.0,0.0,89,0.00,OVC,,0.00,WeatherDisplay:10.37,2013-08-19 10:48:00,
2013-08-19 06:53:00,63.7,60.4,30.30,SSW,200,0.0,0.0,89,0.00,OVC,,0.00,WeatherDisplay:10.37,2013-08-19 10:53:00,
2013-08-19 06:58:00,63.7,60.4,30.30,SSW,200,0.0,0.0,89,0.00,OVC,,0.00,WeatherDisplay:10.37,2013-08-19 10:58:00,
2013-08-19 07:03:00,63.7,61.6,30.30,SSW,200,4.6,4.6,93,0.00,BKN,,0.00,WeatherDisplay:10.37,2013-08-19 11:03:00,
2013-08-19 07:08:00,63.9,61.8,30.30,SSW,200,4.6,4.6,93,0.00,BKN,,0.00,WeatherDisplay:10.37,2013-08-19 11:08:00,
2013-08-19 07:13:00,63.9,61.8,30.30,SSW,200,4.6,4.6,93,0.00,BKN,,0.00,WeatherDisplay:10.37,2013-08-19 11:13:00,
2013-08-19 07:18:00,63.7,61.6,30.30,SSW,200,4.6,4.6,93,0.00,BKN,,0.00,WeatherDisplay:10.37,2013-08-19 11:18:00,
2013-08-19 07:23:00,63.9,61.8,30.30,SSW,200,4.6,4.6,93,0.00,BKN,,0.00,WeatherDisplay:10.37,2013-08-19 11:23:00,
2013-08-19 07:28:00,64.0,62.0,30.30,SSW,200,4.6,4.6,93,0.00,BKN,,0.00,WeatherDisplay:10.37,2013-08-19 11:28:00,
2013-08-19 07:33:00,64.2,62.2,30.30,SSW,200,4.6,4.6,93,0.00,BKN,,0.00,WeatherDisplay:10.37,2013-08-19 11:33:00,
2013-08-19 07:38:00,64.0,62.0,30.30,SSW,200,4.6,4.6,93,0.00,BKN,,0.00,WeatherDisplay:10.37,2013-08-19 11:38:00,
2013-08-19 07:43:00,64.2,62.2,30.30,SSW,200,4.6,4.6,93,0.00,BKN,,0.00,WeatherDisplay:10.37,2013-08-19 11:43:00,
2013-08-19 07:48:00,64.2,62.2,30.30,SSW,200,4.6,4.6,93,0.00,BKN,,0.00,WeatherDisplay:10.37,2013-08-19 11:48:00,
2013-08-19 07:53:00,64.2,62.2,30.30,SSW,200,4.6,4.6,93,0.00,BKN,,0.00,WeatherDisplay:10.37,2013-08-19 11:53:00,
2013-08-19 07:58:00,64.4,62.3,30.30,SSW,200,4.6,4.6,93,0.00,BKN,,0.00,WeatherDisplay:10.37,2013-08-19 11:58:00,
2013-08-19 08:03:00,64.4,61.4,30.30,SSW,200,4.6,4.6,90,0.00,BKN,,0.00,WeatherDisplay:10.37,2013-08-19 12:03:00,
2013-08-19 08:08:00,64.4,61.4,30.30,SSW,200,4.6,4.6,90,0.00,BKN,,0.00,WeatherDisplay:10.37,2013-08-19 12:08:00,
2013-08-19 08:13:00,64.4,61.4,30.30,SSW,200,4.6,4.6,90,0.00,BKN,,0.00,WeatherDisplay:10.37,2013-08-19 12:13:00,
2013-08-19 08:18:00,64.6,61.6,30.30,SSW,200,4.6,4.6,90,0.00,BKN,,0.00,WeatherDisplay:10.37,2013-08-19 12:18:00,
2013-08-19 08:23:00,64.6,61.6,30.30,SSW,200,4.6,4.6,90,0.00,BKN,,0.00,WeatherDisplay:10.37,2013-08-19 12:23:00,
2013-08-19 08:28:00,64.4,61.4,30.30,SSW,200,4.6,4.6,90,0.00,BKN,,0.00,WeatherDisplay:10.37,2013-08-19 12:28:00,
2013-08-19 08:33:00,64.6,61.6,30.30,SSW,200,4.6,4.6,90,0.00,BKN,,0.00,WeatherDisplay:10.37,2013-08-19 12:33:00,
2013-08-19 08:38:00,64.8,61.8,30.30,SSW,200,4.6,4.6,90,0.00,BKN,,0.00,WeatherDisplay:10.37,2013-08-19 12:38:00,
2013-08-19 08:43:00,64.8,61.8,30.30,SSW,200,4.6,4.6,90,0.00,BKN,,0.00,WeatherDisplay:10.37,2013-08-19 12:43:00,
2013-08-19 08:48:00,65.1,62.1,30.30,SSW,200,4.6,4.6,90,0.00,BKN,,0.00,WeatherDisplay:10.37,2013-08-19 12:48:00,
2013-08-19 08:53:00,65.1,62.1,30.30,SSW,200,4.6,4.6,90,0.00,BKN,,0.00,WeatherDisplay:10.37,2013-08-19 12:53:00,
2013-08-19 08:58:00,65.1,62.1,30.30,SSW,200,4.6,4.6,90,0.00,BKN,,0.00,WeatherDisplay:10.37,2013-08-19 12:58:00,
2013-08-19 09:03:00,65.3,59.3,30.30,South,180,4.6,4.6,81,0.00,OVC,,0.00,WeatherDisplay:10.37,2013-08-19 13:03:00,
2013-08-19 09:08:00,65.5,59.5,30.30,South,180,4.6,4.6,81,0.00,OVC,,0.00,WeatherDisplay:10.37,2013-08-19 13:08:00,
2013-08-19 09:13:00,65.5,59.5,30.30,South,180,4.6,4.6,81,0.00,OVC,,0.00,WeatherDisplay:10.37,2013-08-19 13:13:00,
2013-08-19 09:18:00,65.7,59.7,30.30,South,180,4.6,4.6,81,0.00,OVC,,0.00,WeatherDisplay:10.37,2013-08-19 13:18:00,
2013-08-19 09:23:00,65.8,59.8,30.30,South,180,4.6,4.6,81,0.00,OVC,,0.00,WeatherDisplay:10.37,2013-08-19 13:23:00,
2013-08-19 09:28:00,65.8,59.8,30.30,South,180,4.6,4.6,81,0.00,OVC,,0.00,WeatherDisplay:10.37,2013-08-19 13:28:00,
2013-08-19 09:33:00,65.8,59.8,30.30,South,180,4.6,4.6,81,0.00,OVC,,0.00,WeatherDisplay:10.37,2013-08-19 13:33:00,
2013-08-19 09:38:00,66.0,60.0,30.30,South,180,4.6,4.6,81,0.00,OVC,,0.00,WeatherDisplay:10.37,2013-08-19 13:38:00,
2013-08-19 09:43:00,66.0,60.0,30.30,South,180,4.6,4.6,81,0.00,OVC,,0.00,WeatherDisplay:10.37,2013-08-19 13:43:00,
2013-08-19 09:48:00,66.2,60.2,30.30,South,180,4.6,4.6,81,0.00,OVC,,0.00,WeatherDisplay:10.37,2013-08-19 13:48:00,
2013-08-19 09:53:00,66.2,60.2,30.30,South,180,4.6,4.6,81,0.00,OVC,,0.00,WeatherDisplay:10.37,2013-08-19 13:53:00,
2013-08-19 09:58:00,66.4,60.4,30.30,South,180,4.6,4.6,81,0.00,OVC,,0.00,WeatherDisplay:10.37,2013-08-19 13:58:00,
2013-08-19 10:03:00,66.4,59.3,30.30,South,180,0.0,0.0,78,0.00,BKN,,0.00,WeatherDisplay:10.37,2013-08-19 14:03:00,
2013-08-19 10:08:00,66.6,59.5,30.27,South,180,0.0,0.0,78,0.00,BKN,,0.00,WeatherDisplay:10.37,2013-08-19 14:08:00,
2013-08-19 10:13:00,66.7,59.7,30.27,South,180,0.0,0.0,78,0.00,BKN,,0.00,WeatherDisplay:10.37,2013-08-19 14:13:00,
2013-08-19 10:18:00,66.7,59.7,30.27,South,180,0.0,0.0,78,0.00,BKN,,0.00,WeatherDisplay:10.37,2013-08-19 14:18:00,
2013-08-19 10:23:00,66.9,59.8,30.27,South,180,0.0,0.0,78,0.00,BKN,,0.00,WeatherDisplay:10.37,2013-08-19 14:23:00,
2013-08-19 10:28:00,67.1,60.0,30.27,South,180,0.0,0.0,78,0.00,BKN,,0.00,WeatherDisplay:10.37,2013-08-19 14:28:00,
2013-08-19 10:33:00,67.1,60.0,30.27,South,180,0.0,0.0,78,0.00,BKN,,0.00,WeatherDisplay:10.37,2013-08-19 14:33:00,
2013-08-19 10:38:00,67.1,60.0,30.27,South,180,0.0,0.0,78,0.00,BKN,,0.00,WeatherDisplay:10.37,2013-08-19 14:38:00,
2013-08-19 10:43:00,67.3,60.2,30.27,South,180,0.0,0.0,78,0.00,BKN,,0.00,WeatherDisplay:10.37,2013-08-19 14:43:00,
2013-08-19 10:48:00,67.3,60.2,30.27,South,180,0.0,0.0,78,0.00,BKN,,0.00,WeatherDisplay:10.37,2013-08-19 14:48:00,
2013-08-19 10:53:00,67.5,60.4,30.27,South,180,0.0,0.0,78,0.00,BKN,,0.00,WeatherDisplay:10.37,2013-08-19 14:53:00,
2013-08-19 10:58:00,67.6,60.5,30.27,South,180,0.0,0.0,78,0.00,BKN,,0.00,WeatherDisplay:10.37,2013-08-19 14:58:00,
2013-08-19 11:03:00,67.6,56.7,30.27,West,280,3.5,3.5,68,0.00,BKN,,0.00,WeatherDisplay:10.37,2013-08-19 15:03:00,
2013-08-19 11:08:00,67.8,56.9,30.24,West,280,3.5,3.5,68,0.00,BKN,,0.00,WeatherDisplay:10.37,2013-08-19 15:08:00,
2013-08-19 11:14:00,68.0,57.0,30.24,West,280,3.5,3.5,68,0.00,BKN,,0.00,WeatherDisplay:10.37,2013-08-19 15:14:00,
2013-08-19 11:19:00,68.2,57.2,30.24,West,280,3.5,3.5,68,0.00,BKN,,0.00,WeatherDisplay:10.37,2013-08-19 15:19:00,
2013-08-19 11:24:00,68.4,57.4,30.24,West,280,3.5,3.5,68,0.00,BKN,,0.00,WeatherDisplay:10.37,2013-08-19 15:24:00,
2013-08-19 11:29:00,68.5,57.6,30.24,West,280,3.5,3.5,68,0.00,BKN,,0.00,WeatherDisplay:10.37,2013-08-19 15:29:00,
2013-08-19 11:34:00,68.7,57.7,31.33,West,280,3.5,3.5,68,0.00,BKN,,0.00,WeatherDisplay:10.37,2013-08-19 15:34:00,
2013-08-19 11:39:00,68.9,57.9,31.33,West,280,3.5,3.5,68,0.00,BKN,,0.00,WeatherDisplay:10.37,2013-08-19 15:39:00,
2013-08-19 11:44:00,69.1,58.1,31.33,West,280,3.5,3.5,68,0.00,BKN,,0.00,WeatherDisplay:10.37,2013-08-19 15:44:00,
2013-08-19 11:49:00,69.1,58.1,30.98,West,280,3.5,3.5,68,0.00,BKN,,0.00,WeatherDisplay:10.37,2013-08-19 15:49:00,
2013-08-19 11:54:00,69.3,58.2,30.98,West,280,3.5,3.5,68,0.00,BKN,,0.00,WeatherDisplay:10.37,2013-08-19 15:54:00,
2013-08-19 11:59:00,69.4,58.4,30.98,West,280,3.5,3.5,68,0.00,BKN,,0.00,WeatherDisplay:10.37,2013-08-19 15:59:00,
2013-08-19 12:04:00,69.6,58.6,30.83,West,280,3.5,3.5,68,0.00,BKN,,0.00,WeatherDisplay:10.37,2013-08-19 16:04:00,
2013-08-19 12:09:00,70.0,58.9,30.83,West,280,3.5,3.5,68,0.00,BKN,,0.00,WeatherDisplay:10.37,2013-08-19 16:09:00,
2013-08-19 12:14:00,70.2,59.1,30.83,West,280,3.5,3.5,68,0.00,BKN,,0.00,WeatherDisplay:10.37,2013-08-19 16:14:00,
2013-08-19 12:19:00,70.2,56.1,30.74,WSW,250,4.6,4.6,61,0.00,BKN,,0.00,WeatherDisplay:10.37,2013-08-19 16:19:00,
2013-08-19 12:24:00,70.5,56.4,30.74,WSW,250,4.6,4.6,61,0.00,BKN,,0.00,WeatherDisplay:10.37,2013-08-19 16:24:00,
2013-08-19 12:29:00,70.5,56.4,30.74,WSW,250,4.6,4.6,61,0.00,BKN,,0.00,WeatherDisplay:10.37,2013-08-19 16:29:00,
2013-08-19 12:34:00,70.7,56.6,30.68,WSW,250,4.6,4.6,61,0.00,BKN,,0.00,WeatherDisplay:10.37,2013-08-19 16:34:00,
2013-08-19 12:39:00,70.7,56.6,30.68,WSW,250,4.6,4.6,61,0.00,BKN,,0.00,WeatherDisplay:10.37,2013-08-19 16:39:00,
2013-08-19 12:44:00,71.1,56.9,30.68,WSW,250,4.6,4.6,61,0.00,BKN,,0.00,WeatherDisplay:10.37,2013-08-19 16:44:00,
2013-08-19 12:49:00,70.9,56.8,30.62,WSW,250,4.6,4.6,61,0.00,BKN,,0.00,WeatherDisplay:10.37,2013-08-19 16:49:00,
2013-08-19 12:54:00,71.1,56.9,30.62,WSW,250,4.6,4.6,61,0.00,BKN,,0.00,WeatherDisplay:10.37,2013-08-19 16:54:00,
2013-08-19 12:59:00,71.1,56.9,30.62,WSW,250,4.6,4.6,61,0.00,BKN,,0.00,WeatherDisplay:10.37,2013-08-19 16:59:00,
2013-08-19 13:05:00,71.2,55.2,30.54,WSW,250,4.6,4.6,57,0.00,BKN,,0.00,WeatherDisplay:10.37,2013-08-19 17:05:00,
2013-08-19 13:10:00,71.4,55.4,30.54,WSW,250,4.6,4.6,57,0.00,BKN,,0.00,WeatherDisplay:10.37,2013-08-19 17:10:00,
2013-08-19 13:15:00,71.6,55.6,30.54,WSW,250,4.6,4.6,57,0.00,BKN,,0.00,WeatherDisplay:10.37,2013-08-19 17:15:00,
2013-08-19 13:20:00,71.8,55.7,30.48,WSW,250,4.6,4.6,57,0.00,BKN,,0.00,WeatherDisplay:10.37,2013-08-19 17:20:00,
2013-08-19 13:25:00,71.8,55.7,30.48,WSW,250,4.6,4.6,57,0.00,BKN,,0.00,WeatherDisplay:10.37,2013-08-19 17:25:00,
2013-08-19 13:30:00,71.8,55.7,30.48,WSW,250,4.6,4.6,57,0.00,BKN,,0.00,WeatherDisplay:10.37,2013-08-19 17:30:00,
2013-08-19 13:35:00,72.0,55.9,31.25,WSW,250,4.6,4.6,57,0.00,BKN,,0.00,WeatherDisplay:10.37,2013-08-19 17:35:00,
2013-08-19 13:40:00,72.1,56.1,31.25,WSW,250,4.6,4.6,57,0.00,BKN,,0.00,WeatherDisplay:10.37,2013-08-19 17:40:00,
2013-08-19 13:45:00,72.7,56.6,31.25,WSW,250,4.6,4.6,57,0.00,BKN,,0.00,WeatherDisplay:10.37,2013-08-19 17:45:00,
2013-08-19 13:50:00,72.5,56.4,30.30,WSW,250,4.6,4.6,57,0.00,BKN,,0.00,WeatherDisplay:10.37,2013-08-19 17:50:00,
2013-08-19 13:55:00,72.7,56.6,30.30,WSW,250,4.6,4.6,57,0.00,BKN,,0.00,WeatherDisplay:10.37,2013-08-19 17:55:00,
2013-08-19 14:00:00,72.9,56.7,30.30,WSW,250,4.6,4.6,57,0.00,BKN,,0.00,WeatherDisplay:10.37,2013-08-19 18:00:00,
2013-08-19 14:05:00,72.9,53.1,30.27,SW,220,6.9,6.9,50,0.00,BKN,,0.00,WeatherDisplay:10.37,2013-08-19 18:05:00,
2013-08-19 14:10:00,72.9,53.1,30.27,SW,220,6.9,6.9,50,0.00,BKN,,0.00,WeatherDisplay:10.37,2013-08-19 18:10:00,
2013-08-19 14:15:00,73.4,53.6,30.27,SW,220,6.9,6.9,50,0.00,BKN,,0.00,WeatherDisplay:10.37,2013-08-19 18:15:00,
2013-08-19 14:20:00,73.4,53.6,30.24,SW,220,6.9,6.9,50,0.00,BKN,,0.00,WeatherDisplay:10.37,2013-08-19 18:20:00,
2013-08-19 14:25:00,73.8,54.0,30.24,SW,220,6.9,6.9,50,0.00,BKN,,0.00,WeatherDisplay:10.37,2013-08-19 18:25:00,
2013-08-19 14:30:00,73.8,54.0,30.24,SW,220,6.9,6.9,50,0.00,BKN,,0.00,WeatherDisplay:10.37,2013-08-19 18:30:00,
2013-08-19 14:35:00,73.8,54.0,30.30,SW,220,6.9,6.9,50,0.00,BKN,,0.00,WeatherDisplay:10.37,2013-08-19 18:35:00,
2013-08-19 14:40:00,73.9,54.1,30.30,SW,220,6.9,6.9,50,0.00,BKN,,0.00,WeatherDisplay:10.37,2013-08-19 18:40:00,
2013-08-19 14:45:00,73.9,54.1,30.30,SW,220,6.9,6.9,50,0.00,BKN,,0.00,WeatherDisplay:10.37,2013-08-19 18:45:00,
2013-08-19 14:50:00,74.1,54.3,30.18,SW,220,6.9,6.9,50,0.00,BKN,,0.00,WeatherDisplay:10.37,2013-08-19 18:50:00,
2013-08-19 14:55:00,73.9,54.1,30.18,SW,220,6.9,6.9,50,0.00,BKN,,0.00,WeatherDisplay:10.37,2013-08-19 18:55:00,
2013-08-19 15:00:00,74.5,54.6,30.18,SW,220,6.9,6.9,50,0.00,BKN,,0.00,WeatherDisplay:10.37,2013-08-19 19:00:00,
2013-08-19 15:06:00,74.7,54.8,30.15,SW,220,6.9,6.9,50,0.00,BKN,,0.00,WeatherDisplay:10.37,2013-08-19 19:06:00,
2013-08-19 15:11:00,74.7,54.8,30.15,SW,220,6.9,6.9,50,0.00,BKN,,0.00,WeatherDisplay:10.37,2013-08-19 19:11:00,
2013-08-19 15:16:00,74.7,47.4,30.15,WSW,250,10.4,10.4,38,0.00,BKN,,0.00,WeatherDisplay:10.37,2013-08-19 19:16:00,
2013-08-19 15:21:00,74.7,47.4,30.15,WSW,250,10.4,10.4,38,0.00,BKN,,0.00,WeatherDisplay:10.37,2013-08-19 19:21:00,
2013-08-19 15:26:00,74.5,47.2,30.15,WSW,250,10.4,10.4,38,0.00,BKN,,0.00,WeatherDisplay:10.37,2013-08-19 19:26:00,
2013-08-19 15:31:00,74.5,47.2,30.15,WSW,250,10.4,10.4,38,0.00,BKN,,0.00,WeatherDisplay:10.37,2013-08-19 19:31:00,
2013-08-19 15:36:00,74.7,47.4,30.15,WSW,250,10.4,10.4,38,0.00,BKN,,0.00,WeatherDisplay:10.37,2013-08-19 19:36:00,
2013-08-19 15:41:00,74.7,47.4,30.15,WSW,250,10.4,10.4,38,0.00,BKN,,0.00,WeatherDisplay:10.37,2013-08-19 19:41:00,
2013-08-19 15:46:00,74.7,47.4,30.15,WSW,250,10.4,10.4,38,0.00,BKN,,0.00,WeatherDisplay:10.37,2013-08-19 19:46:00,
2013-08-19 15:51:00,74.8,47.5,30.15,WSW,250,10.4,10.4,38,0.00,BKN,,0.00,WeatherDisplay:10.37,2013-08-19 19:51:00,
2013-08-19 15:56:00,75.0,47.7,30.15,WSW,250,10.4,10.4,38,0.00,BKN,,0.00,WeatherDisplay:10.37,2013-08-19 19:56:00,
2013-08-19 16:01:00,75.7,49.0,30.15,West,260,6.9,10.4,39,0.00,BKN,,0.00,WeatherDisplay:10.37,2013-08-19 20:01:00,
2013-08-19 16:06:00,75.9,49.2,30.15,West,260,6.9,6.9,39,0.00,BKN,,0.00,WeatherDisplay:10.37,2013-08-19 20:06:00,
2013-08-19 16:11:00,75.9,49.2,30.15,West,260,6.9,6.9,39,0.00,BKN,,0.00,WeatherDisplay:10.37,2013-08-19 20:11:00,
2013-08-19 16:16:00,76.1,49.3,30.15,West,260,6.9,6.9,39,0.00,BKN,,0.00,WeatherDisplay:10.37,2013-08-19 20:16:00,
2013-08-19 16:21:00,76.1,49.3,30.15,West,260,6.9,6.9,39,0.00,BKN,,0.00,WeatherDisplay:10.37,2013-08-19 20:21:00,
2013-08-19 16:26:00,76.1,49.3,30.15,West,260,6.9,6.9,39,0.00,BKN,,0.00,WeatherDisplay:10.37,2013-08-19 20:26:00,
2013-08-19 16:31:00,76.3,49.5,30.15,West,260,6.9,6.9,39,0.00,BKN,,0.00,WeatherDisplay:10.37,2013-08-19 20:31:00,
2013-08-19 16:36:00,76.3,49.5,30.03,West,260,6.9,6.9,39,0.00,BKN,,0.00,WeatherDisplay:10.37,2013-08-19 20:36:00,
2013-08-19 16:41:00,76.3,49.5,30.03,West,260,6.9,6.9,39,0.00,BKN,,0.00,WeatherDisplay:10.37,2013-08-19 20:41:00,
2013-08-19 16:46:00,76.3,49.5,30.03,West,260,6.9,6.9,39,0.00,BKN,,0.00,WeatherDisplay:10.37,2013-08-19 20:46:00,
2013-08-19 16:51:00,75.9,49.2,30.03,West,260,6.9,6.9,39,0.00,BKN,,0.00,WeatherDisplay:10.37,2013-08-19 20:51:00,
2013-08-19 16:56:00,75.9,49.2,30.03,West,260,6.9,6.9,39,0.00,BKN,,0.00,WeatherDisplay:10.37,2013-08-19 20:56:00,
2013-08-19 17:01:00,75.4,50.7,30.03,WSW,250,8.1,8.1,42,0.00,BKN,,0.00,WeatherDisplay:10.37,2013-08-19 21:01:00,
2013-08-19 17:06:00,75.2,50.5,30.03,WSW,250,8.1,8.1,42,0.00,BKN,,0.00,WeatherDisplay:10.37,2013-08-19 21:06:00,
2013-08-19 17:11:00,75.0,50.4,30.03,WSW,250,8.1,8.1,42,0.00,BKN,,0.00,WeatherDisplay:10.37,2013-08-19 21:11:00,
2013-08-19 17:16:00,75.0,50.4,30.03,WSW,250,8.1,8.1,42,0.00,BKN,,0.00,WeatherDisplay:10.37,2013-08-19 21:16:00,
2013-08-19 17:21:00,74.7,50.0,30.03,WSW,250,8.1,8.1,42,0.00,BKN,,0.00,WeatherDisplay:10.37,2013-08-19 21:21:00,
2013-08-19 17:26:00,74.7,50.0,30.03,WSW,250,8.1,8.1,42,0.00,BKN,,0.00,WeatherDisplay:10.37,2013-08-19 21:26:00,
2013-08-19 17:31:00,74.5,49.9,30.03,WSW,250,8.1,8.1,42,0.00,BKN,,0.00,WeatherDisplay:10.37,2013-08-19 21:31:00,
2013-08-19 17:36:00,74.1,49.6,30.00,WSW,250,8.1,8.1,42,0.00,BKN,,0.00,WeatherDisplay:10.37,2013-08-19 21:36:00,
2013-08-19 17:41:00,74.1,49.6,30.00,WSW,250,8.1,8.1,42,0.00,BKN,,0.00,WeatherDisplay:10.37,2013-08-19 21:41:00,
2013-08-19 17:46:00,74.1,49.6,30.00,WSW,250,8.1,8.1,42,0.00,BKN,,0.00,WeatherDisplay:10.37,2013-08-19 21:46:00,
2013-08-19 17:51:00,73.8,49.2,30.03,WSW,250,8.1,8.1,42,0.00,BKN,,0.00,WeatherDisplay:10.37,2013-08-19 21:51:00,
2013-08-19 17:56:00,73.8,49.2,30.03,WSW,250,8.1,8.1,42,0.00,BKN,,0.00,WeatherDisplay:10.37,2013-08-19 21:56:00,
2013-08-19 18:01:00,73.8,49.2,30.03,WSW,250,8.1,8.1,42,0.00,BKN,,0.00,WeatherDisplay:10.37,2013-08-19 22:01:00,
2013-08-19 18:06:00,73.8,49.2,30.00,WSW,250,8.1,8.1,42,0.00,BKN,,0.00,WeatherDisplay:10.37,2013-08-19 22:06:00,
2013-08-19 18:11:00,73.4,48.9,30.00,WSW,250,8.1,8.1,42,0.00,BKN,,0.00,WeatherDisplay:10.37,2013-08-19 22:11:00,
2013-08-19 18:16:00,73.0,48.6,30.00,WSW,250,8.1,8.1,42,0.00,BKN,,0.00,WeatherDisplay:10.37,2013-08-19 22:16:00,
2013-08-19 18:21:00,72.9,48.4,30.03,WSW,250,8.1,8.1,42,0.00,BKN,,0.00,WeatherDisplay:10.37,2013-08-19 22:21:00,
2013-08-19 18:26:00,72.7,48.3,30.03,WSW,250,8.1,8.1,42,0.00,BKN,,0.00,WeatherDisplay:10.37,2013-08-19 22:26:00,
2013-08-19 18:31:00,72.7,48.3,30.03,WSW,250,8.1,8.1,42,0.00,BKN,,0.00,WeatherDisplay:10.37,2013-08-19 22:31:00,
2013-08-19 18:36:00,72.7,48.3,30.03,WSW,250,8.1,8.1,42,0.00,BKN,,0.00,WeatherDisplay:10.37,2013-08-19 22:36:00,
2013-08-19 18:41:00,72.3,47.9,30.03,WSW,250,8.1,8.1,42,0.00,BKN,,0.00,WeatherDisplay:10.37,2013-08-19 22:41:00,
2013-08-19 18:46:00,72.1,47.8,30.03,WSW,250,8.1,8.1,42,0.00,BKN,,0.00,WeatherDisplay:10.37,2013-08-19 22:46:00,
2013-08-19 18:51:00,72.0,47.6,30.03,WSW,250,8.1,8.1,42,0.00,BKN,,0.00,WeatherDisplay:10.37,2013-08-19 22:51:00,
2013-08-19 18:56:00,72.0,47.6,30.03,WSW,250,8.1,8.1,42,0.00,BKN,,0.00,WeatherDisplay:10.37,2013-08-19 22:56:00,
2013-08-19 19:01:00,71.8,53.7,30.03,WSW,250,5.8,8.1,53,0.00,BKN,,0.00,WeatherDisplay:10.37,2013-08-19 23:01:00,
2013-08-19 19:06:00,71.6,53.6,30.03,WSW,250,5.8,5.8,53,0.00,BKN,,0.00,WeatherDisplay:10.37,2013-08-19 23:06:00,
2013-08-19 19:11:00,71.4,53.4,30.03,WSW,250,5.8,5.8,53,0.00,BKN,,0.00,WeatherDisplay:10.37,2013-08-19 23:11:00,
2013-08-19 19:16:00,71.4,53.4,30.03,WSW,250,5.8,5.8,53,0.00,BKN,,0.00,WeatherDisplay:10.37,2013-08-19 23:16:00,
2013-08-19 19:21:00,71.2,53.2,30.00,WSW,250,5.8,5.8,53,0.00,BKN,,0.00,WeatherDisplay:10.37,2013-08-19 23:21:00,
2013-08-19 19:26:00,71.2,53.2,30.00,WSW,250,5.8,5.8,53,0.00,BKN,,0.00,WeatherDisplay:10.37,2013-08-19 23:26:00,
2013-08-19 19:31:00,70.9,52.9,30.00,WSW,250,5.8,5.8,53,0.00,BKN,,0.00,WeatherDisplay:10.37,2013-08-19 23:31:00,
2013-08-19 19:36:00,70.9,52.9,30.00,WSW,250,5.8,5.8,53,0.00,BKN,,0.00,WeatherDisplay:10.37,2013-08-19 23:36:00,
2013-08-19 19:41:00,70.5,52.6,30.00,WSW,250,5.8,5.8,53,0.00,BKN,,0.00,WeatherDisplay:10.37,2013-08-19 23:41:00,
2013-08-19 19:46:00,70.5,52.6,30.00,WSW,250,5.8,5.8,53,0.00,BKN,,0.00,WeatherDisplay:10.37,2013-08-19 23:46:00,
2013-08-19 19:51:00,70.3,52.4,30.03,WSW,250,5.8,5.8,53,0.00,BKN,,0.00,WeatherDisplay:10.37,2013-08-19 23:51:00,
2013-08-19 19:56:00,70.2,52.2,30.03,WSW,250,5.8,5.8,53,0.00,BKN,,0.00,WeatherDisplay:10.37,2013-08-19 23:56:00,
2013-08-19 20:01:00,69.8,54.8,30.03,SW,230,3.5,5.8,59,0.00,BKN,,0.00,WeatherDisplay:10.37,2013-08-20 00:01:00,
2013-08-19 20:06:00,69.8,54.8,30.03,SW,230,3.5,3.5,59,0.00,BKN,,0.00,WeatherDisplay:10.37,2013-08-20 00:06:00,
2013-08-19 20:11:00,69.6,54.7,30.03,SW,230,3.5,3.5,59,0.00,BKN,,0.00,WeatherDisplay:10.37,2013-08-20 00:11:00,
2013-08-19 20:16:00,69.4,54.5,30.03,SW,230,3.5,3.5,59,0.00,BKN,,0.00,WeatherDisplay:10.37,2013-08-20 00:16:00,
2013-08-19 20:21:00,69.4,54.5,30.00,SW,230,3.5,3.5,59,0.00,BKN,,0.00,WeatherDisplay:10.37,2013-08-20 00:21:00,
2013-08-19 20:26:00,69.3,54.3,30.00,SW,230,3.5,3.5,59,0.00,BKN,,0.00,WeatherDisplay:10.37,2013-08-20 00:26:00,
2013-08-19 20:31:00,69.1,54.1,30.00,SW,230,3.5,3.5,59,0.00,BKN,,0.00,WeatherDisplay:10.37,2013-08-20 00:31:00,
2013-08-19 20:36:00,68.9,54.0,30.03,SW,230,3.5,3.5,59,0.00,BKN,,0.00,WeatherDisplay:10.37,2013-08-20 00:36:00,
2013-08-19 20:41:00,68.9,54.0,30.03,SW,230,3.5,3.5,59,0.00,BKN,,0.00,WeatherDisplay:10.37,2013-08-20 00:41:00,
2013-08-19 20:46:00,68.9,54.0,30.03,SW,230,3.5,3.5,59,0.00,BKN,,0.00,WeatherDisplay:10.37,2013-08-20 00:46:00,
2013-08-19 20:51:00,68.5,53.6,30.03,SW,230,3.5,3.5,59,0.00,BKN,,0.00,WeatherDisplay:10.37,2013-08-20 00:51:00,
2013-08-19 20:57:00,68.5,53.6,30.03,SW,230,3.5,3.5,59,0.00,BKN,,0.00,WeatherDisplay:10.37,2013-08-20 00:57:00,
2013-08-19 21:02:00,68.4,58.2,30.03,SW,230,0.0,3.5,70,0.00,BKN,,0.00,WeatherDisplay:10.37,2013-08-20 01:02:00,
2013-08-19 21:07:00,68.2,58.0,30.03,SW,230,0.0,0.0,70,0.00,BKN,,0.00,WeatherDisplay:10.37,2013-08-20 01:07:00,
2013-08-19 21:12:00,68.0,57.8,30.03,SW,230,0.0,0.0,70,0.00,BKN,,0.00,WeatherDisplay:10.37,2013-08-20 01:12:00,
2013-08-19 21:17:00,67.8,57.7,30.03,SW,230,0.0,0.0,70,0.00,BKN,,0.00,WeatherDisplay:10.37,2013-08-20 01:17:00,
2013-08-19 21:22:00,68.0,57.8,30.03,SW,230,0.0,0.0,70,0.00,BKN,,0.00,WeatherDisplay:10.37,2013-08-20 01:22:00,
2013-08-19 21:27:00,67.8,57.7,30.03,SW,230,0.0,0.0,70,0.00,BKN,,0.00,WeatherDisplay:10.37,2013-08-20 01:27:00,
2013-08-19 21:32:00,67.6,57.5,30.03,SW,230,0.0,0.0,70,0.00,BKN,,0.00,WeatherDisplay:10.37,2013-08-20 01:32:00,
2013-08-19 21:37:00,67.6,57.5,30.03,SW,230,0.0,0.0,70,0.00,BKN,,0.00,WeatherDisplay:10.37,2013-08-20 01:37:00,
2013-08-19 21:42:00,67.6,57.5,30.03,SW,230,0.0,0.0,70,0.00,BKN,,0.00,WeatherDisplay:10.37,2013-08-20 01:42:00,
2013-08-19 21:47:00,67.6,57.5,30.03,SW,230,0.0,0.0,70,0.00,BKN,,0.00,WeatherDisplay:10.37,2013-08-20 01:47:00,
2013-08-19 21:52:00,67.6,57.5,30.06,SW,230,0.0,0.0,70,0.00,BKN,,0.00,WeatherDisplay:10.37,2013-08-20 01:52:00,
2013-08-19 21:57:00,67.5,57.3,30.06,SW,230,0.0,0.0,70,0.00,BKN,,0.00,WeatherDisplay:10.37,2013-08-20 01:57:00,
2013-08-19 22:02:00,67.5,58.1,30.06,SW,230,0.0,0.0,72,0.00,SCT,,0.00,WeatherDisplay:10.37,2013-08-20 02:02:00,
2013-08-19 22:07:00,67.1,57.8,30.03,SW,230,0.0,0.0,72,0.00,SCT,,0.00,WeatherDisplay:10.37,2013-08-20 02:07:00,
2013-08-19 22:12:00,67.1,57.8,30.03,SW,230,0.0,0.0,72,0.00,SCT,,0.00,WeatherDisplay:10.37,2013-08-20 02:12:00,
2013-08-19 22:17:00,67.1,57.8,30.03,SW,230,0.0,0.0,72,0.00,SCT,,0.00,WeatherDisplay:10.37,2013-08-20 02:17:00,
2013-08-19 22:22:00,66.9,57.6,30.06,SW,230,0.0,0.0,72,0.00,SCT,,0.00,WeatherDisplay:10.37,2013-08-20 02:22:00,
2013-08-19 22:27:00,67.1,57.8,30.06,SW,230,0.0,0.0,72,0.00,SCT,,0.00,WeatherDisplay:10.37,2013-08-20 02:27:00,
2013-08-19 22:32:00,66.9,57.6,30.06,SW,230,0.0,0.0,72,0.00,SCT,,0.00,WeatherDisplay:10.37,2013-08-20 02:32:00,
2013-08-19 22:37:00,66.9,57.6,30.86,SW,230,0.0,0.0,72,0.00,SCT,,0.00,WeatherDisplay:10.37,2013-08-20 02:37:00,
2013-08-19 22:42:00,66.6,57.3,30.86,SW,230,0.0,0.0,72,0.00,SCT,,0.00,WeatherDisplay:10.37,2013-08-20 02:42:00,
2013-08-19 22:47:00,66.7,57.4,30.86,SW,230,0.0,0.0,72,0.00,SCT,,0.00,WeatherDisplay:10.37,2013-08-20 02:47:00,
2013-08-19 22:52:00,66.4,57.1,31.07,SW,230,0.0,0.0,72,0.00,SCT,,0.00,WeatherDisplay:10.37,2013-08-20 02:52:00,
2013-08-19 22:57:00,66.4,57.1,31.07,SW,230,0.0,0.0,72,0.00,SCT,,0.00,WeatherDisplay:10.37,2013-08-20 02:57:00,
2013-08-19 23:02:00,66.4,57.1,31.07,SW,230,0.0,0.0,72,0.00,SCT,,0.00,WeatherDisplay:10.37,2013-08-20 03:02:00,
2013-08-19 23:07:00,66.2,56.9,30.27,SW,230,0.0,0.0,72,0.00,SCT,,0.00,WeatherDisplay:10.37,2013-08-20 03:07:00,
2013-08-19 23:12:00,66.2,56.9,30.27,SW,230,0.0,0.0,72,0.00,SCT,,0.00,WeatherDisplay:10.37,2013-08-20 03:12:00,
2013-08-19 23:17:00,66.0,57.9,30.27,SSW,210,4.6,4.6,75,0.00,SCT,,0.00,WeatherDisplay:10.37,2013-08-20 03:17:00,
2013-08-19 23:22:00,66.2,58.0,31.19,SSW,210,4.6,4.6,75,0.00,SCT,,0.00,WeatherDisplay:10.37,2013-08-20 03:22:00,
2013-08-19 23:27:00,66.2,58.0,31.19,SSW,210,4.6,4.6,75,0.00,SCT,,0.00,WeatherDisplay:10.37,2013-08-20 03:27:00,
2013-08-19 23:32:00,65.8,57.7,31.19,SSW,210,4.6,4.6,75,0.00,SCT,,0.00,WeatherDisplay:10.37,2013-08-20 03:32:00,
2013-08-19 23:37:00,65.8,57.7,30.27,SSW,210,4.6,4.6,75,0.00,SCT,,0.00,WeatherDisplay:10.37,2013-08-20 03:37:00,
2013-08-19 23:42:00,65.8,57.7,30.27,SSW,210,4.6,4.6,75,0.00,SCT,,0.00,WeatherDisplay:10.37,2013-08-20 03:42:00,
2013-08-19 23:47:00,65.8,57.7,30.27,SSW,210,4.6,4.6,75,0.00,SCT,,0.00,WeatherDisplay:10.37,2013-08-20 03:47:00,
2013-08-19 23:52:00,65.8,57.7,30.21,SSW,210,4.6,4.6,75,0.00,SCT,,0.00,WeatherDisplay:10.37,2013-08-20 03:52:00,
2013-08-19 23:57:00,65.8,57.7,30.21,SSW,210,4.6,4.6,75,0.00,SCT,,0.00,WeatherDisplay:10.37,2013-08-20 03:57:00,